createdAt,value
2017-09-30T00:01:36.170Z,20.40
2017-09-30T00:04:03.635Z,20.40
2017-09-30T00:06:31.877Z,20.40
2017-09-30T00:08:59.333Z,20.30
2017-09-30T00:11:27.885Z,20.30
2017-09-30T00:13:55.331Z,20.30
2017-09-30T00:16:23.569Z,20.20
2017-09-30T00:18:51.023Z,20.30
2017-09-30T00:21:18.485Z,20.20
2017-09-30T00:23:47.057Z,20.20
2017-09-30T00:26:14.914Z,20.10
2017-09-30T00:28:42.689Z,20.10
2017-09-30T00:31:10.235Z,20.10
2017-09-30T00:33:37.702Z,20.10
2017-09-30T00:36:05.214Z,20.00
2017-09-30T00:38:32.682Z,20.00
2017-09-30T00:41:00.201Z,19.90
2017-09-30T00:43:29.232Z,19.90
2017-09-30T00:45:57.811Z,19.90
2017-09-30T00:48:25.909Z,19.90
2017-09-30T00:50:53.385Z,19.90
2017-09-30T00:53:21.706Z,19.80
2017-09-30T00:55:49.466Z,19.80
2017-09-30T00:58:17.098Z,19.80
2017-09-30T01:00:44.895Z,19.80
2017-09-30T01:03:13.644Z,19.80
2017-09-30T01:05:41.569Z,19.80
2017-09-30T01:08:09.030Z,19.80
2017-09-30T01:10:36.490Z,19.80
2017-09-30T01:13:05.435Z,19.80
2017-09-30T01:15:32.882Z,19.80
2017-09-30T01:18:01.066Z,19.80
2017-09-30T01:20:28.510Z,19.80
2017-09-30T01:22:56.728Z,19.80
2017-09-30T01:25:25.861Z,19.70
2017-09-30T01:27:54.078Z,19.70
2017-09-30T01:30:21.540Z,19.70
2017-09-30T01:32:49.008Z,19.70
2017-09-30T01:35:17.446Z,19.70
2017-09-30T01:37:44.924Z,19.60
2017-09-30T01:40:12.610Z,19.60
2017-09-30T01:42:40.067Z,19.60
2017-09-30T01:45:08.058Z,19.60
2017-09-30T01:47:36.509Z,19.70
2017-09-30T01:50:05.160Z,19.70
2017-09-30T01:52:33.796Z,19.70
2017-09-30T01:55:02.091Z,19.70
2017-09-30T01:57:29.906Z,19.70
2017-09-30T01:59:57.948Z,19.80
2017-09-30T02:02:26.461Z,19.70
2017-09-30T02:04:54.308Z,19.70
2017-09-30T02:07:21.815Z,19.70
2017-09-30T02:09:49.359Z,19.70
2017-09-30T02:12:17.106Z,19.60
2017-09-30T02:14:44.559Z,19.60
2017-09-30T02:17:12.100Z,19.60
2017-09-30T02:19:39.614Z,19.60
2017-09-30T02:22:07.106Z,19.50
2017-09-30T02:24:35.344Z,19.40
2017-09-30T02:27:03.287Z,19.40
2017-09-30T02:29:30.828Z,19.40
2017-09-30T02:31:58.278Z,19.30
2017-09-30T02:34:25.754Z,19.30
2017-09-30T02:36:53.402Z,19.40
2017-09-30T02:39:21.208Z,19.40
2017-09-30T02:41:48.640Z,19.40
2017-09-30T02:44:16.705Z,19.30
2017-09-30T02:46:44.713Z,19.40
2017-09-30T02:49:12.948Z,19.40
2017-09-30T02:51:42.745Z,19.40
2017-09-30T02:54:11.743Z,19.40
2017-09-30T02:56:40.297Z,19.40
2017-09-30T02:59:08.264Z,19.40
2017-09-30T03:01:37.289Z,19.40
2017-09-30T03:04:05.659Z,19.40
2017-09-30T03:06:33.374Z,19.40
2017-09-30T03:09:01.964Z,19.40
2017-09-30T03:11:29.600Z,19.30
2017-09-30T03:13:57.078Z,19.30
2017-09-30T03:16:24.528Z,19.30
2017-09-30T03:18:52.012Z,19.30
2017-09-30T03:21:19.482Z,19.40
2017-09-30T03:23:47.072Z,19.40
2017-09-30T03:26:15.761Z,19.40
2017-09-30T03:28:43.376Z,19.30
2017-09-30T03:31:10.978Z,19.40
2017-09-30T03:33:38.417Z,19.30
2017-09-30T03:36:06.371Z,19.40
2017-09-30T03:38:33.812Z,19.30
2017-09-30T03:41:01.357Z,19.30
2017-09-30T03:43:29.306Z,19.20
2017-09-30T03:45:56.745Z,19.20
2017-09-30T03:48:24.458Z,19.20
2017-09-30T03:50:52.689Z,19.20
2017-09-30T03:53:21.873Z,19.20
2017-09-30T03:55:49.929Z,19.20
2017-09-30T03:58:17.843Z,19.20
2017-09-30T04:00:45.607Z,19.10
2017-09-30T04:03:13.414Z,19.10
2017-09-30T04:05:41.242Z,19.10
2017-09-30T04:08:09.636Z,19.10
2017-09-30T04:10:37.458Z,19.10
2017-09-30T04:13:05.723Z,19.10
2017-09-30T04:15:33.927Z,19.20
2017-09-30T04:18:01.468Z,19.10
2017-09-30T04:20:28.948Z,19.20
2017-09-30T04:22:57.197Z,19.10
2017-09-30T04:25:25.370Z,19.10
2017-09-30T04:27:53.610Z,19.10
2017-09-30T04:30:21.069Z,19.10
2017-09-30T04:32:48.667Z,19.10
2017-09-30T04:35:16.116Z,19.10
2017-09-30T04:37:44.060Z,19.10
2017-09-30T04:40:11.511Z,19.10
2017-09-30T04:42:39.070Z,19.20
2017-09-30T04:45:06.842Z,19.10
2017-09-30T04:47:35.437Z,19.20
2017-09-30T04:50:02.936Z,19.10
2017-09-30T04:52:32.230Z,19.10
2017-09-30T04:55:01.733Z,19.10
2017-09-30T04:57:30.622Z,19.10
2017-09-30T04:59:59.165Z,19.10
2017-09-30T05:02:27.714Z,19.10
2017-09-30T05:04:55.484Z,19.00
2017-09-30T05:07:23.722Z,19.00
2017-09-30T05:09:51.189Z,19.00
2017-09-30T05:12:20.005Z,19.00
2017-09-30T05:14:47.546Z,19.00
2017-09-30T05:17:15.502Z,18.90
2017-09-30T05:19:42.979Z,18.90
2017-09-30T05:22:12.529Z,18.90
2017-09-30T05:24:40.072Z,18.90
2017-09-30T05:27:08.166Z,18.90
2017-09-30T05:29:35.628Z,18.90
2017-09-30T05:32:04.545Z,18.90
2017-09-30T05:34:32.018Z,18.80
2017-09-30T05:36:59.454Z,18.80
2017-09-30T05:39:27.706Z,18.90
2017-09-30T05:41:55.191Z,18.80
2017-09-30T05:44:23.789Z,18.80
2017-09-30T05:46:51.685Z,18.80
2017-09-30T05:49:19.395Z,18.80
2017-09-30T05:51:46.883Z,18.70
2017-09-30T05:54:14.724Z,18.70
2017-09-30T05:56:43.405Z,18.70
2017-09-30T05:59:11.977Z,18.70
2017-09-30T06:01:40.832Z,18.70
2017-09-30T06:04:09.051Z,18.60
2017-09-30T06:06:36.597Z,18.60
2017-09-30T06:09:04.186Z,18.60
2017-09-30T06:11:31.626Z,18.60
2017-09-30T06:13:59.379Z,18.60
2017-09-30T06:16:28.960Z,18.60
2017-09-30T06:18:56.442Z,18.60
2017-09-30T06:21:23.882Z,18.60
2017-09-30T06:23:51.373Z,18.60
2017-09-30T06:26:19.356Z,18.60
2017-09-30T06:28:47.802Z,18.60
2017-09-30T06:31:15.251Z,18.60
2017-09-30T06:33:42.750Z,18.60
2017-09-30T06:36:10.291Z,18.60
2017-09-30T06:38:37.724Z,18.60
2017-09-30T06:41:05.190Z,18.60
2017-09-30T06:43:33.051Z,18.60
2017-09-30T06:46:00.502Z,18.60
2017-09-30T06:48:28.211Z,18.60
2017-09-30T06:50:55.750Z,18.60
2017-09-30T06:53:23.295Z,18.60
2017-09-30T06:55:51.219Z,18.60
2017-09-30T06:58:19.076Z,18.70
2017-09-30T07:00:46.985Z,18.70
2017-09-30T07:03:14.795Z,18.70
2017-09-30T07:05:43.195Z,18.70
2017-09-30T07:08:12.655Z,18.70
2017-09-30T07:10:40.449Z,18.70
2017-09-30T07:13:08.718Z,18.70
2017-09-30T07:15:36.922Z,18.70
2017-09-30T07:18:04.468Z,18.70
2017-09-30T07:20:31.929Z,18.80
2017-09-30T07:22:59.800Z,18.80
2017-09-30T07:25:31.741Z,18.90
2017-09-30T07:27:59.257Z,18.90
2017-09-30T07:30:26.706Z,18.90
2017-09-30T07:32:54.186Z,18.90
2017-09-30T07:35:22.407Z,18.90
2017-09-30T07:37:49.925Z,18.80
2017-09-30T07:40:18.224Z,18.80
2017-09-30T07:42:46.446Z,18.70
2017-09-30T07:45:14.399Z,18.70
2017-09-30T07:47:42.248Z,18.70
2017-09-30T07:50:09.730Z,18.70
2017-09-30T07:52:37.230Z,18.70
2017-09-30T07:55:05.284Z,18.80
2017-09-30T07:57:33.086Z,18.80
2017-09-30T08:00:01.298Z,18.80
2017-09-30T08:02:30.196Z,18.80
2017-09-30T08:04:58.338Z,18.80
2017-09-30T08:07:25.799Z,18.80
2017-09-30T08:09:53.479Z,18.80
2017-09-30T08:12:20.960Z,18.80
2017-09-30T08:14:48.406Z,18.80
2017-09-30T08:17:15.942Z,18.90
2017-09-30T08:19:43.482Z,18.80
2017-09-30T08:22:11.024Z,18.90
2017-09-30T08:24:38.568Z,18.80
2017-09-30T08:27:06.523Z,18.80
2017-09-30T08:29:33.962Z,18.80
2017-09-30T08:32:01.477Z,18.90
2017-09-30T08:34:30.170Z,18.90
2017-09-30T08:36:57.733Z,18.90
2017-09-30T08:39:25.193Z,18.90
2017-09-30T08:41:52.674Z,18.90
2017-09-30T08:44:20.403Z,19.00
2017-09-30T08:46:49.059Z,18.90
2017-09-30T08:49:16.870Z,18.90
2017-09-30T08:51:44.329Z,18.90
2017-09-30T08:54:12.218Z,18.90
2017-09-30T08:56:40.269Z,18.90
2017-09-30T08:59:09.336Z,19.00
2017-09-30T09:01:38.371Z,19.10
2017-09-30T09:04:05.868Z,19.00
2017-09-30T09:06:33.711Z,19.10
2017-09-30T09:09:02.428Z,19.20
2017-09-30T09:11:29.897Z,19.20
2017-09-30T09:13:57.752Z,19.20
2017-09-30T09:16:25.365Z,19.20
2017-09-30T09:18:52.834Z,19.20
2017-09-30T09:21:20.707Z,19.30
2017-09-30T09:23:48.507Z,19.30
2017-09-30T09:26:17.644Z,19.30
2017-09-30T09:28:45.906Z,19.30
2017-09-30T09:31:14.670Z,19.30
2017-09-30T09:33:42.886Z,19.40
2017-09-30T09:36:10.437Z,19.30
2017-09-30T09:38:37.885Z,19.40
2017-09-30T09:41:05.563Z,19.40
2017-09-30T09:43:33.600Z,19.40
2017-09-30T09:46:01.182Z,19.40
2017-09-30T09:48:29.233Z,19.40
2017-09-30T09:50:56.804Z,19.50
2017-09-30T09:53:24.347Z,19.50
2017-09-30T09:55:52.337Z,19.50
2017-09-30T09:58:20.266Z,19.50
2017-09-30T10:00:47.735Z,19.50
2017-09-30T10:03:15.600Z,19.50
2017-09-30T10:05:44.317Z,19.60
2017-09-30T10:08:12.102Z,19.60
2017-09-30T10:10:39.550Z,19.60
2017-09-30T10:13:07.031Z,19.60
2017-09-30T10:15:35.142Z,19.60
2017-09-30T10:18:02.637Z,19.70
2017-09-30T10:20:30.088Z,19.70
2017-09-30T10:22:58.689Z,19.70
2017-09-30T10:25:27.349Z,19.80
2017-09-30T10:27:55.217Z,19.80
2017-09-30T10:30:23.552Z,19.90
2017-09-30T10:32:51.219Z,19.80
2017-09-30T10:35:18.747Z,19.90
2017-09-30T10:37:46.220Z,19.90
2017-09-30T10:40:14.427Z,19.90
2017-09-30T10:42:42.088Z,19.90
2017-09-30T10:45:09.902Z,19.90
2017-09-30T10:47:37.880Z,19.90
2017-09-30T10:50:05.562Z,19.90
2017-09-30T10:52:33.060Z,19.90
2017-09-30T10:55:01.631Z,19.90
2017-09-30T10:57:29.308Z,19.90
2017-09-30T10:59:57.122Z,19.90
2017-09-30T11:02:24.931Z,19.90
2017-09-30T11:04:52.995Z,19.90
2017-09-30T11:07:20.466Z,19.90
2017-09-30T11:09:47.934Z,20.00
2017-09-30T11:12:15.460Z,19.90
2017-09-30T11:14:42.919Z,19.90
2017-09-30T11:17:11.311Z,19.80
2017-09-30T11:19:40.131Z,19.80
2017-09-30T11:22:07.701Z,19.80
2017-09-30T11:24:35.934Z,19.80
2017-09-30T11:27:03.757Z,19.80
2017-09-30T11:29:31.201Z,19.80
2017-09-30T11:31:58.670Z,19.80
2017-09-30T11:34:26.151Z,19.80
2017-09-30T11:36:54.383Z,19.60
2017-09-30T11:39:21.865Z,19.70
2017-09-30T11:41:50.089Z,19.60
2017-09-30T11:44:17.890Z,19.60
2017-09-30T11:46:45.804Z,19.60
2017-09-30T11:49:13.322Z,19.60
2017-09-30T11:51:40.789Z,19.60
2017-09-30T11:54:09.144Z,19.60
2017-09-30T11:56:36.909Z,19.60
2017-09-30T11:59:05.389Z,19.50
2017-09-30T12:01:34.609Z,19.50
2017-09-30T12:04:02.412Z,19.50
2017-09-30T12:06:30.716Z,19.60
2017-09-30T12:08:58.190Z,19.50
2017-09-30T12:11:26.114Z,19.60
2017-09-30T12:13:53.610Z,19.60
2017-09-30T12:16:21.836Z,19.60
2017-09-30T12:18:49.326Z,19.60
2017-09-30T12:21:17.534Z,19.60
2017-09-30T12:23:45.015Z,19.60
2017-09-30T12:26:13.865Z,19.60
2017-09-30T12:28:41.515Z,19.60
2017-09-30T12:31:10.160Z,19.60
2017-09-30T12:33:37.832Z,19.60
2017-09-30T12:36:05.293Z,19.60
2017-09-30T12:38:33.282Z,19.60
2017-09-30T12:41:00.775Z,19.60
2017-09-30T12:43:29.448Z,19.60
2017-09-30T12:45:57.669Z,19.50
2017-09-30T12:48:25.952Z,19.50
2017-09-30T12:50:53.437Z,19.10
2017-09-30T12:53:20.900Z,18.70
2017-09-30T12:55:48.686Z,18.40
2017-09-30T12:58:19.568Z,18.10
2017-09-30T13:00:48.532Z,17.90
2017-09-30T13:03:17.235Z,17.30
2017-09-30T13:05:45.729Z,17.30
2017-09-30T13:08:14.112Z,17.20
2017-09-30T13:10:41.604Z,17.20
2017-09-30T13:13:09.089Z,17.10
2017-09-30T13:15:36.568Z,16.90
2017-09-30T13:18:04.013Z,16.70
2017-09-30T13:20:31.699Z,16.60
2017-09-30T13:23:00.162Z,16.40
2017-09-30T13:25:28.543Z,16.40
2017-09-30T13:27:56.043Z,16.40
2017-09-30T13:30:23.540Z,16.30
2017-09-30T13:32:51.028Z,16.20
2017-09-30T13:35:18.491Z,16.20
2017-09-30T13:37:46.200Z,16.20
2017-09-30T13:40:13.681Z,16.10
2017-09-30T13:42:42.013Z,16.20
2017-09-30T13:45:10.197Z,16.20
2017-09-30T13:47:38.429Z,16.20
2017-09-30T13:50:06.209Z,16.20
2017-09-30T13:52:33.852Z,16.20
2017-09-30T13:55:02.417Z,16.10
2017-09-30T13:57:30.272Z,16.20
2017-09-30T13:59:58.511Z,16.10
2017-09-30T14:02:26.421Z,16.00
2017-09-30T14:04:54.291Z,16.00
2017-09-30T14:07:21.738Z,16.00
2017-09-30T14:09:49.284Z,15.90
2017-09-30T14:12:16.744Z,15.90
2017-09-30T14:14:44.274Z,15.90
2017-09-30T14:17:11.779Z,15.90
2017-09-30T14:19:39.345Z,15.80
2017-09-30T14:22:07.129Z,15.90
2017-09-30T14:24:34.581Z,15.90
2017-09-30T14:27:03.403Z,15.90
2017-09-30T14:29:30.862Z,15.90
2017-09-30T14:31:58.494Z,15.90
2017-09-30T14:34:25.940Z,16.00
2017-09-30T14:36:53.420Z,16.00
2017-09-30T14:39:20.872Z,16.00
2017-09-30T14:41:49.488Z,16.10
2017-09-30T14:44:17.490Z,16.10
2017-09-30T14:46:46.876Z,16.10
2017-09-30T14:49:15.122Z,16.10
2017-09-30T14:51:42.635Z,16.10
2017-09-30T14:54:10.181Z,16.00
2017-09-30T14:56:38.120Z,16.10
2017-09-30T14:59:06.219Z,16.00
2017-09-30T15:01:34.899Z,15.90
2017-09-30T15:04:03.866Z,15.90
2017-09-30T15:06:32.182Z,15.80
2017-09-30T15:08:59.626Z,15.80
2017-09-30T15:11:27.100Z,15.80
2017-09-30T15:13:55.528Z,15.80
2017-09-30T15:16:23.888Z,15.80
2017-09-30T15:18:51.340Z,15.80
2017-09-30T15:21:18.827Z,15.80
2017-09-30T15:23:47.049Z,15.70
2017-09-30T15:26:15.127Z,15.70
2017-09-30T15:28:43.379Z,15.80
2017-09-30T15:31:10.991Z,15.70
2017-09-30T15:33:38.844Z,15.70
2017-09-30T15:36:06.315Z,15.60
2017-09-30T15:38:33.826Z,15.70
2017-09-30T15:41:01.266Z,15.70
2017-09-30T15:43:29.257Z,15.70
2017-09-30T15:45:56.728Z,15.70
2017-09-30T15:48:25.058Z,15.70
2017-09-30T15:50:53.024Z,15.70
2017-09-30T15:53:21.290Z,15.70
2017-09-30T15:55:49.839Z,15.80
2017-09-30T15:58:18.073Z,15.70
2017-09-30T16:00:45.608Z,15.70
2017-09-30T16:03:14.029Z,15.60
2017-09-30T16:05:42.572Z,15.60
2017-09-30T16:08:10.382Z,15.60
2017-09-30T16:10:37.851Z,15.60
2017-09-30T16:13:05.751Z,15.50
2017-09-30T16:15:33.250Z,15.50
2017-09-30T16:18:00.700Z,15.40
2017-09-30T16:20:28.299Z,15.40
2017-09-30T16:22:55.950Z,15.50
2017-09-30T16:25:23.494Z,15.50
2017-09-30T16:27:51.383Z,15.40
2017-09-30T16:30:19.138Z,15.40
2017-09-30T16:32:47.701Z,15.40
2017-09-30T16:35:15.917Z,15.50
2017-09-30T16:37:43.420Z,15.40
2017-09-30T16:40:11.714Z,15.40
2017-09-30T16:42:39.200Z,15.30
2017-09-30T16:45:08.844Z,15.20
2017-09-30T16:47:36.657Z,15.20
2017-09-30T16:50:04.884Z,15.10
2017-09-30T16:52:32.371Z,15.10
2017-09-30T16:55:00.412Z,15.00
2017-09-30T16:57:29.229Z,15.00
2017-09-30T16:59:57.081Z,14.90
2017-09-30T17:02:25.697Z,15.00
2017-09-30T17:04:53.649Z,15.00
2017-09-30T17:07:22.726Z,15.00
2017-09-30T17:09:50.275Z,15.00
2017-09-30T17:12:18.509Z,15.10
2017-09-30T17:14:46.269Z,15.10
2017-09-30T17:17:14.568Z,15.10
2017-09-30T17:19:42.061Z,15.10
2017-09-30T17:22:10.229Z,15.10
2017-09-30T17:24:37.733Z,15.10
2017-09-30T17:27:06.196Z,15.00
2017-09-30T17:29:33.882Z,15.00
2017-09-30T17:32:01.338Z,15.00
2017-09-30T17:34:30.138Z,15.00
2017-09-30T17:36:57.663Z,15.00
2017-09-30T17:39:25.523Z,15.00
2017-09-30T17:41:53.133Z,14.90
2017-09-30T17:44:22.889Z,14.90
2017-09-30T17:46:50.945Z,14.80
2017-09-30T17:49:18.487Z,14.80
2017-09-30T17:51:45.972Z,14.90
2017-09-30T17:54:14.939Z,14.90
2017-09-30T17:56:42.918Z,14.90
2017-09-30T17:59:11.367Z,15.00
2017-09-30T18:01:40.022Z,15.00
2017-09-30T18:04:08.386Z,15.00
2017-09-30T18:06:36.349Z,15.00
2017-09-30T18:09:04.818Z,14.90
2017-09-30T18:11:33.041Z,15.00
2017-09-30T18:14:00.587Z,14.90
2017-09-30T18:16:28.038Z,15.00
2017-09-30T18:18:55.537Z,15.00
2017-09-30T18:21:23.000Z,15.10
2017-09-30T18:23:51.257Z,15.10
2017-09-30T18:26:19.761Z,15.10
2017-09-30T18:28:47.980Z,15.20
2017-09-30T18:31:15.508Z,15.20
2017-09-30T18:33:42.980Z,15.20
2017-09-30T18:36:10.446Z,15.20
2017-09-30T18:38:37.949Z,15.20
2017-09-30T18:41:05.390Z,15.20
2017-09-30T18:43:33.902Z,15.10
2017-09-30T18:48:30.973Z,15.00
2017-09-30T18:50:59.032Z,15.00
2017-09-30T18:53:26.489Z,15.00
2017-09-30T18:55:54.584Z,15.00
2017-09-30T18:58:24.073Z,14.90
2017-09-30T19:00:52.557Z,14.90
2017-09-30T19:03:21.130Z,14.90
2017-09-30T19:05:49.466Z,14.80
2017-09-30T19:08:16.931Z,14.80
2017-09-30T19:10:44.651Z,14.80
2017-09-30T19:13:12.102Z,14.80
2017-09-30T19:15:40.577Z,14.80
2017-09-30T19:18:08.800Z,14.80
2017-09-30T19:20:36.284Z,14.80
2017-09-30T19:23:03.895Z,14.80
2017-09-30T19:25:32.327Z,14.70
2017-09-30T19:27:59.833Z,14.70
2017-09-30T19:30:27.340Z,14.60
2017-09-30T19:32:55.729Z,14.60
2017-09-30T19:35:23.972Z,14.40
2017-09-30T19:37:51.437Z,14.40
2017-09-30T19:40:19.189Z,14.40
2017-09-30T19:42:47.404Z,14.30
2017-09-30T19:45:15.395Z,14.30
2017-09-30T19:47:45.249Z,14.30
2017-09-30T19:50:13.435Z,14.30
2017-09-30T19:52:40.876Z,14.30
2017-09-30T19:55:10.092Z,14.40
2017-09-30T19:57:39.657Z,14.40
2017-09-30T20:00:08.623Z,14.40
2017-09-30T20:02:37.449Z,14.40
2017-09-30T20:05:05.488Z,14.40
2017-09-30T20:07:32.950Z,14.40
2017-09-30T20:10:00.408Z,14.40
2017-09-30T20:12:27.912Z,14.50
2017-09-30T20:14:56.392Z,14.50
2017-09-30T20:17:24.050Z,14.50
2017-09-30T20:19:51.527Z,14.50
2017-09-30T20:22:19.882Z,14.50
2017-09-30T20:24:47.342Z,14.40
2017-09-30T20:27:16.727Z,14.40
2017-09-30T20:29:44.953Z,14.40
2017-09-30T20:32:12.909Z,14.30
2017-09-30T20:34:40.785Z,14.30
2017-09-30T20:37:09.964Z,14.20
2017-09-30T20:39:38.202Z,14.10
2017-09-30T20:42:05.831Z,14.10
2017-09-30T20:44:33.764Z,14.10
2017-09-30T20:47:01.884Z,14.00
2017-09-30T20:49:30.913Z,14.00
2017-09-30T20:51:58.394Z,14.00
2017-09-30T20:54:26.629Z,14.00
2017-09-30T20:56:56.557Z,14.00
2017-09-30T20:59:24.819Z,14.00
2017-09-30T21:01:53.581Z,14.00
2017-09-30T21:04:21.253Z,14.00
2017-09-30T21:06:48.730Z,14.00
2017-09-30T21:09:16.244Z,14.00
2017-09-30T21:11:43.708Z,13.90
2017-09-30T21:14:11.194Z,13.90
2017-09-30T21:16:39.432Z,14.00
2017-09-30T21:19:07.113Z,13.90
2017-09-30T21:21:35.375Z,13.90
2017-09-30T21:24:03.781Z,14.00
2017-09-30T21:26:31.780Z,14.00
2017-09-30T21:29:00.015Z,14.00
2017-09-30T21:31:27.549Z,14.00
2017-09-30T21:33:55.010Z,14.00
2017-09-30T21:36:22.514Z,14.00
2017-09-30T21:38:49.984Z,14.00
2017-09-30T21:41:17.717Z,14.00
2017-09-30T21:43:45.461Z,14.00
2017-09-30T21:46:14.086Z,13.90
2017-09-30T21:48:42.138Z,14.00
2017-09-30T21:51:10.377Z,14.00
2017-09-30T21:53:38.133Z,13.90
2017-09-30T21:56:06.936Z,14.00
2017-09-30T21:58:35.108Z,14.00
2017-09-30T22:01:02.715Z,14.00
2017-09-30T22:03:31.067Z,14.00
2017-09-30T22:05:59.349Z,14.10
2017-09-30T22:08:26.923Z,14.00
2017-09-30T22:10:54.515Z,14.10
2017-09-30T22:13:22.212Z,14.10
2017-09-30T22:15:49.763Z,14.10
2017-09-30T22:18:17.280Z,14.10
2017-09-30T22:20:45.197Z,14.10
2017-09-30T22:23:12.694Z,14.10
2017-09-30T22:25:40.703Z,14.00
2017-09-30T22:28:09.019Z,14.00
2017-09-30T22:30:36.472Z,14.00
2017-09-30T22:33:04.344Z,13.90
2017-09-30T22:35:33.807Z,13.90
2017-09-30T22:38:01.304Z,13.90
2017-09-30T22:40:28.854Z,13.80
2017-09-30T22:42:56.328Z,13.80
2017-09-30T22:45:24.252Z,13.80
2017-09-30T22:47:52.313Z,13.70
2017-09-30T22:50:20.204Z,13.70
2017-09-30T22:52:47.735Z,13.70
2017-09-30T22:55:17.000Z,13.60
2017-09-30T22:57:45.849Z,13.60
2017-09-30T23:00:13.419Z,13.60
2017-09-30T23:02:41.276Z,13.50
2017-09-30T23:05:08.913Z,13.50
2017-09-30T23:07:36.398Z,13.50
2017-09-30T23:10:04.645Z,13.40
2017-09-30T23:12:32.141Z,13.40
2017-09-30T23:14:59.611Z,13.40
2017-09-30T23:17:27.068Z,13.40
2017-09-30T23:19:56.138Z,13.30
2017-09-30T23:22:24.041Z,13.40
2017-09-30T23:24:51.501Z,13.40
2017-09-30T23:27:19.204Z,13.30
2017-09-30T23:29:47.978Z,13.30
2017-09-30T23:32:16.735Z,13.30
2017-09-30T23:34:44.221Z,13.30
2017-09-30T23:37:11.702Z,13.30
2017-09-30T23:39:39.184Z,13.30
2017-09-30T23:42:07.411Z,13.30
2017-09-30T23:44:35.305Z,13.30
2017-09-30T23:47:03.236Z,13.30
2017-09-30T23:49:31.931Z,13.30
2017-09-30T23:51:59.413Z,13.30
2017-09-30T23:54:26.896Z,13.30
2017-09-30T23:56:56.488Z,13.20
2017-09-30T23:59:24.707Z,13.20
